Avalon Express — WDD7919 — position and weather

sailwx.info

Track history (hours):
 
Tides and Currents Weather Stations Pressure Air Temp Water Temp Dewpoint Dewpoint Depression Visibility Wind Speed Wind Dir Waves Ship Positions

Avalon Express

Owner: RGWT INC, San Pedro, CA. More information available from US FCC via Universal Licensing System and Coast Guard Vessel Documentation Center.

Last reported at 2014-Oct-28 02:33 UTC. Time now 2014-Oct-30 23:03 UTC.
Position N 33°45' W 118°16'.

Type: High speed craft. MMSI: 367192940.

Date/timePositionNaut miles runAvg speedWind from/ knotsBaromVisibWave heightAir tempDewpointWater temp
2014-Oct-28 02:33N 33°45' W 118°16'0 0.0
2014-Oct-28 01:33N 33°45' W 118°16'2319.0
2014-Oct-28 00:22N 33°22' W 118°19'21 9.5
2014-Oct-27 22:11N 33°43' W 118°15'2 1.4
2014-Oct-27 20:30N 33°45' W 118°16'1 1.2
2014-Oct-27 19:31N 33°44' W 118°16'22 9.4
2014-Oct-27 17:08N 33°22' W 118°19'2225.4
2014-Oct-27 16:17N 33°43' W 118°16'2 2.8
2014-Oct-27 15:33N 33°45' W 118°16'0 0.0
2014-Oct-26 20:33N 33°45' W 118°16'1 1.3
2014-Oct-26 19:31N 33°44' W 118°16'2 0.7
2014-Oct-26 16:22N 33°42' W 118°15'4 4.4
2014-Oct-26 15:33N 33°45' W 118°16'0 0.0
2014-Oct-25 20:27N 33°45' W 118°16'1 0.8
2014-Oct-25 19:33N 33°44' W 118°17'2013.6
2014-Oct-25 18:03N 33°27' W 118°29'1019.9
2014-Oct-25 17:34N 33°22' W 118°19'1514.7
2014-Oct-25 16:34N 33°36' W 118°16'9 8.9
2014-Oct-25 15:33N 33°45' W 118°16'0 0.0
2014-Oct-25 14:33N 33°45' W 118°16'0 0.0
2014-Oct-25 13:33N 33°45' W 118°16'0 0.0
2014-Oct-24 21:12N 33°45' W 118°16'0 0.0
2014-Oct-24 20:33N 33°45' W 118°16'6 6.3
2014-Oct-24 19:33N 33°40' W 118°12'2423.6
2014-Oct-24 18:34N 33°30' W 117°46'4 4.0
2014-Oct-24 17:34N 33°27' W 117°44'2424.2
2014-Oct-24 16:34N 33°24' W 118°13'6 6.3
2014-Oct-24 15:34N 33°25' W 118°20'2019.7
2014-Oct-24 14:33N 33°45' W 118°16'0 0.0
2014-Oct-24 13:33N 33°45' W 118°16'1 0.0
2014-Oct-22 21:29N 33°44' W 118°17'4 4.6
2014-Oct-22 20:33N 33°45' W 118°12'2120.7
2014-Oct-22 19:33N 33°26' W 118°19'3 3.4
2014-Oct-22 18:33N 33°23' W 118°21'2323.4
2014-Oct-22 17:33N 33°44' W 118°11'2 2.0
2014-Oct-22 16:33N 33°43' W 118°13'  
2014-Oct-20 00:16N 33°45' W 118°16'0 0.0
2014-Oct-19 23:33N 33°45' W 118°16'2115.7
2014-Oct-19 22:11N 33°24' W 118°17'3 3.0
2014-Oct-19 21:10N 33°21' W 118°19'2421.5
2014-Oct-19 20:04N 33°45' W 118°17'0 0.8
2014-Oct-19 19:33N 33°45' W 118°16'3 2.8
2014-Oct-19 18:33N 33°42' W 118°15'2216.0
2014-Oct-19 17:11N 33°21' W 118°19'2224.7
2014-Oct-19 16:18N 33°43' W 118°15'3 3.5
2014-Oct-19 15:33N 33°45' W 118°16'0 0.0
2014-Oct-19 01:29N 33°45' W 118°16'0 0.1
2014-Oct-18 22:32N 33°45' W 118°17'0 0.4
2014-Oct-18 21:33N 33°45' W 118°16'0 0.0
2014-Oct-18 17:34N 33°45' W 118°16'1 0.1
2014-Oct-18 05:30N 33°44' W 118°16'2317.8
2014-Oct-18 04:12N 33°21' W 118°19'  
Track history (hours):
 
Tides and Currents Weather Stations Pressure Air Temp Water Temp Dewpoint Dewpoint Depression Visibility Wind Speed Wind Dir Waves Ship Positions

Avalon Express

Owner: RGWT INC, San Pedro, CA. More information available from US FCC via Universal Licensing System and Coast Guard Vessel Documentation Center.

Last reported at 2014-Oct-28 02:33 UTC. Time now 2014-Oct-30 23:03 UTC.
Position N 33°45' W 118°16'.

Type: High speed craft. MMSI: 367192940.

Date/timePositionNaut miles runAvg speedWind from/ knotsBaromVisibWave heightAir tempDewpointWater temp
2014-Oct-28 02:33N 33°45' W 118°16'0 0.0
2014-Oct-28 01:33N 33°45' W 118°16'2319.0
2014-Oct-28 00:22N 33°22' W 118°19'21 9.5
2014-Oct-27 22:11N 33°43' W 118°15'2 1.4
2014-Oct-27 20:30N 33°45' W 118°16'1 1.2
2014-Oct-27 19:31N 33°44' W 118°16'22 9.4
2014-Oct-27 17:08N 33°22' W 118°19'2225.4
2014-Oct-27 16:17N 33°43' W 118°16'2 2.8
2014-Oct-27 15:33N 33°45' W 118°16'0 0.0
2014-Oct-26 20:33N 33°45' W 118°16'1 1.3
2014-Oct-26 19:31N 33°44' W 118°16'2 0.7
2014-Oct-26 16:22N 33°42' W 118°15'4 4.4
2014-Oct-26 15:33N 33°45' W 118°16'0 0.0
2014-Oct-25 20:27N 33°45' W 118°16'1 0.8
2014-Oct-25 19:33N 33°44' W 118°17'2013.6
2014-Oct-25 18:03N 33°27' W 118°29'1019.9
2014-Oct-25 17:34N 33°22' W 118°19'1514.7
2014-Oct-25 16:34N 33°36' W 118°16'9 8.9
2014-Oct-25 15:33N 33°45' W 118°16'0 0.0
2014-Oct-25 14:33N 33°45' W 118°16'0 0.0
2014-Oct-25 13:33N 33°45' W 118°16'0 0.0
2014-Oct-24 21:12N 33°45' W 118°16'0 0.0
2014-Oct-24 20:33N 33°45' W 118°16'6 6.3
2014-Oct-24 19:33N 33°40' W 118°12'2423.6
2014-Oct-24 18:34N 33°30' W 117°46'4 4.0
2014-Oct-24 17:34N 33°27' W 117°44'2424.2
2014-Oct-24 16:34N 33°24' W 118°13'6 6.3
2014-Oct-24 15:34N 33°25' W 118°20'2019.7
2014-Oct-24 14:33N 33°45' W 118°16'0 0.0
2014-Oct-24 13:33N 33°45' W 118°16'1 0.0
2014-Oct-22 21:29N 33°44' W 118°17'4 4.6
2014-Oct-22 20:33N 33°45' W 118°12'2120.7
2014-Oct-22 19:33N 33°26' W 118°19'3 3.4
2014-Oct-22 18:33N 33°23' W 118°21'2323.4
2014-Oct-22 17:33N 33°44' W 118°11'2 2.0
2014-Oct-22 16:33N 33°43' W 118°13'  
2014-Oct-20 00:16N 33°45' W 118°16'0 0.0
2014-Oct-19 23:33N 33°45' W 118°16'2115.7
2014-Oct-19 22:11N 33°24' W 118°17'3 3.0
2014-Oct-19 21:10N 33°21' W 118°19'2421.5
2014-Oct-19 20:04N 33°45' W 118°17'0 0.8
2014-Oct-19 19:33N 33°45' W 118°16'3 2.8
2014-Oct-19 18:33N 33°42' W 118°15'2216.0
2014-Oct-19 17:11N 33°21' W 118°19'2224.7
2014-Oct-19 16:18N 33°43' W 118°15'3 3.5
2014-Oct-19 15:33N 33°45' W 118°16'0 0.0
2014-Oct-19 01:29N 33°45' W 118°16'0 0.1
2014-Oct-18 22:32N 33°45' W 118°17'0 0.4
2014-Oct-18 21:33N 33°45' W 118°16'0 0.0
2014-Oct-18 17:34N 33°45' W 118°16'1 0.1
2014-Oct-18 05:30N 33°44' W 118°16'2317.8
2014-Oct-18 04:12N 33°21' W 118°19'  

Dump ship's entire track history